createdAt,value
2023-05-11T00:00:42.473Z,959.19
2023-05-11T00:01:42.446Z,959.14
2023-05-11T00:02:42.478Z,959.13
2023-05-11T00:03:42.448Z,959.13
2023-05-11T00:04:42.410Z,959.08
2023-05-11T00:05:42.361Z,959.11
2023-05-11T00:06:42.312Z,959.10
2023-05-11T00:07:42.284Z,959.06
2023-05-11T00:08:42.257Z,959.10
2023-05-11T00:09:42.233Z,959.06
2023-05-11T00:10:42.205Z,959.09
2023-05-11T00:11:42.189Z,959.03
2023-05-11T00:12:42.165Z,959.04
2023-05-11T00:13:42.127Z,959.05
2023-05-11T00:14:42.100Z,959.02
2023-05-11T00:15:42.094Z,959.01
2023-05-11T00:16:42.048Z,958.96
2023-05-11T00:17:42.163Z,958.97
2023-05-11T00:18:42.058Z,958.95
2023-05-11T00:19:41.969Z,959.01
2023-05-11T00:20:41.938Z,958.96
2023-05-11T00:21:41.940Z,958.96
2023-05-11T00:22:43.520Z,958.97
2023-05-11T00:23:41.864Z,958.97
2023-05-11T00:24:41.835Z,958.99
2023-05-11T00:25:41.810Z,958.99
2023-05-11T00:26:41.786Z,958.95
2023-05-11T00:27:41.762Z,958.97
2023-05-11T00:28:41.728Z,958.98
2023-05-11T00:29:41.702Z,959.00
2023-05-11T00:30:41.673Z,958.97
2023-05-11T00:31:41.672Z,958.99
2023-05-11T00:32:41.695Z,958.99
2023-05-11T00:33:41.591Z,958.98
2023-05-11T00:34:41.574Z,958.99
2023-05-11T00:35:41.539Z,958.98
2023-05-11T00:36:41.522Z,958.96
2023-05-11T00:37:41.512Z,958.92
2023-05-11T00:38:41.471Z,958.89
2023-05-11T00:39:41.458Z,958.92
2023-05-11T00:40:41.439Z,958.86
2023-05-11T00:41:41.377Z,958.84
2023-05-11T00:42:41.360Z,958.89
2023-05-11T00:43:41.323Z,958.85
2023-05-11T00:44:41.327Z,958.87
2023-05-11T00:45:41.286Z,958.87
2023-05-11T00:46:41.338Z,958.84
2023-05-11T00:47:41.231Z,958.84
2023-05-11T00:48:41.201Z,958.84
2023-05-11T00:49:41.163Z,958.84
2023-05-11T00:50:41.139Z,958.84
2023-05-11T00:51:41.119Z,958.82
2023-05-11T00:52:41.085Z,958.82
2023-05-11T00:53:41.079Z,958.86
2023-05-11T00:54:41.034Z,958.81
2023-05-11T00:55:41.018Z,958.84
2023-05-11T00:56:40.999Z,958.78
2023-05-11T00:57:40.954Z,958.82
2023-05-11T00:58:40.924Z,958.81
2023-05-11T00:59:40.895Z,958.84
2023-05-11T01:00:40.879Z,958.79
2023-05-11T01:01:40.846Z,958.84
2023-05-11T01:02:40.937Z,958.80
2023-05-11T01:03:40.792Z,958.83
2023-05-11T01:04:40.764Z,958.82
2023-05-11T01:05:40.741Z,958.87
2023-05-11T01:06:40.741Z,958.86
2023-05-11T01:07:40.702Z,958.89
2023-05-11T01:08:40.658Z,958.89
2023-05-11T01:09:40.669Z,958.90
2023-05-11T01:10:40.609Z,958.89
2023-05-11T01:11:40.589Z,958.86
2023-05-11T01:12:40.558Z,958.91
2023-05-11T01:13:40.535Z,958.91
2023-05-11T01:14:40.508Z,958.88
2023-05-11T01:15:40.478Z,958.87
2023-05-11T01:16:40.494Z,958.88
2023-05-11T01:17:40.441Z,958.87
2023-05-11T01:18:40.460Z,958.86
2023-05-11T01:19:40.369Z,958.91
2023-05-11T01:20:40.342Z,958.89
2023-05-11T01:21:40.312Z,958.88
2023-05-11T01:22:40.299Z,958.90
2023-05-11T01:23:40.269Z,958.87
2023-05-11T01:24:40.237Z,958.88
2023-05-11T01:25:40.228Z,958.88
2023-05-11T01:26:40.189Z,958.90
2023-05-11T01:27:40.157Z,958.85
2023-05-11T01:28:40.131Z,958.85
2023-05-11T01:29:40.103Z,958.90
2023-05-11T01:30:40.078Z,958.89
2023-05-11T01:31:40.079Z,958.91
2023-05-11T01:32:41.676Z,958.90
2023-05-11T01:33:40.000Z,958.91
2023-05-11T01:34:39.968Z,958.91
2023-05-11T01:35:39.943Z,958.89
2023-05-11T01:36:39.917Z,958.87
2023-05-11T01:37:39.891Z,958.86
2023-05-11T01:38:39.866Z,958.85
2023-05-11T01:39:39.840Z,958.82
2023-05-11T01:40:39.809Z,958.83
2023-05-11T01:41:39.811Z,958.86
2023-05-11T01:42:39.759Z,958.83
2023-05-11T01:43:39.728Z,958.86
2023-05-11T01:44:39.701Z,958.85
2023-05-11T01:45:39.701Z,958.80
2023-05-11T01:46:39.653Z,958.84
2023-05-11T01:47:39.637Z,958.78
2023-05-11T01:48:39.592Z,958.80
2023-05-11T01:49:39.566Z,958.81
2023-05-11T01:50:39.542Z,958.78
2023-05-11T01:51:39.514Z,958.78
2023-05-11T01:52:39.486Z,958.74
2023-05-11T01:53:39.464Z,958.81
2023-05-11T01:54:39.438Z,958.78
2023-05-11T01:55:39.405Z,958.80
2023-05-11T01:56:39.378Z,958.78
2023-05-11T01:57:39.369Z,958.81
2023-05-11T01:58:39.328Z,958.79
2023-05-11T01:59:39.302Z,958.79
2023-05-11T02:00:39.270Z,958.80
2023-05-11T02:01:39.280Z,958.80
2023-05-11T02:02:39.341Z,958.76
2023-05-11T02:03:39.414Z,958.77
2023-05-11T02:04:39.161Z,958.75
2023-05-11T02:05:39.138Z,958.76
2023-05-11T02:06:39.123Z,958.77
2023-05-11T02:07:39.098Z,958.75
2023-05-11T02:08:39.057Z,958.77
2023-05-11T02:09:39.028Z,958.78
2023-05-11T02:10:39.004Z,958.78
2023-05-11T02:11:38.983Z,958.79
2023-05-11T02:12:38.949Z,958.81
2023-05-11T02:13:38.940Z,958.80
2023-05-11T02:14:38.898Z,958.80
2023-05-11T02:15:38.899Z,958.75
2023-05-11T02:16:38.843Z,958.77
2023-05-11T02:17:38.831Z,958.79
2023-05-11T02:18:38.837Z,958.76
2023-05-11T02:19:38.765Z,958.80
2023-05-11T02:20:38.736Z,958.77
2023-05-11T02:21:38.709Z,958.80
2023-05-11T02:22:38.688Z,958.74
2023-05-11T02:23:38.657Z,958.73
2023-05-11T02:24:38.630Z,958.70
2023-05-11T02:25:38.600Z,958.71
2023-05-11T02:26:38.575Z,958.72
2023-05-11T02:27:38.564Z,958.69
2023-05-11T02:28:38.522Z,958.71
2023-05-11T02:29:38.514Z,958.71
2023-05-11T02:30:38.468Z,958.69
2023-05-11T02:31:38.459Z,958.71
2023-05-11T02:32:38.433Z,958.72
2023-05-11T02:33:38.398Z,958.69
2023-05-11T02:34:38.361Z,958.72
2023-05-11T02:35:38.334Z,958.67
2023-05-11T02:36:38.307Z,958.68
2023-05-11T02:37:38.277Z,958.71
2023-05-11T02:38:38.255Z,958.70
2023-05-11T02:39:38.247Z,958.68
2023-05-11T02:40:38.201Z,958.67
2023-05-11T02:41:38.176Z,958.71
2023-05-11T02:42:38.147Z,958.67
2023-05-11T02:43:38.126Z,958.69
2023-05-11T02:44:38.092Z,958.70
2023-05-11T02:45:38.085Z,958.70
2023-05-11T02:46:38.095Z,958.66
2023-05-11T02:47:38.030Z,958.64
2023-05-11T02:48:37.984Z,958.65
2023-05-11T02:49:37.956Z,958.65
2023-05-11T02:50:37.927Z,958.65
2023-05-11T02:51:37.901Z,958.64
2023-05-11T02:52:37.893Z,958.61
2023-05-11T02:53:37.849Z,958.59
2023-05-11T02:54:37.822Z,958.62
2023-05-11T02:55:37.800Z,958.59
2023-05-11T02:56:37.768Z,958.60
2023-05-11T02:57:37.745Z,958.57
2023-05-11T02:58:37.746Z,958.58
2023-05-11T02:59:37.689Z,958.60
2023-05-11T03:00:37.739Z,958.59
2023-05-11T03:01:37.720Z,958.56
2023-05-11T03:02:37.764Z,958.58
2023-05-11T03:03:37.811Z,958.55
2023-05-11T03:04:37.566Z,958.60
2023-05-11T03:05:37.530Z,958.55
2023-05-11T03:06:37.508Z,958.55
2023-05-11T03:07:37.475Z,958.53
2023-05-11T03:08:37.451Z,958.51
2023-05-11T03:09:37.423Z,958.53
2023-05-11T03:10:37.400Z,958.54
2023-05-11T03:11:37.364Z,958.56
2023-05-11T03:12:37.335Z,958.56
2023-05-11T03:13:37.321Z,958.56
2023-05-11T03:14:37.293Z,958.50
2023-05-11T03:15:37.264Z,958.54
2023-05-11T03:16:37.234Z,958.51
2023-05-11T03:17:37.436Z,958.51
2023-05-11T03:18:37.219Z,958.49
2023-05-11T03:19:37.150Z,958.54
2023-05-11T03:20:37.127Z,958.51
2023-05-11T03:21:37.097Z,958.55
2023-05-11T03:22:37.080Z,958.51
2023-05-11T03:23:37.057Z,958.50
2023-05-11T03:24:37.019Z,958.51
2023-05-11T03:25:36.989Z,958.52
2023-05-11T03:26:36.969Z,958.47
2023-05-11T03:27:36.944Z,958.47
2023-05-11T03:28:36.911Z,958.50
2023-05-11T03:29:36.887Z,958.46
2023-05-11T03:30:36.861Z,958.45
2023-05-11T03:31:36.857Z,958.47
2023-05-11T03:32:36.850Z,958.49
2023-05-11T03:33:36.795Z,958.48
2023-05-11T03:34:36.753Z,958.43
2023-05-11T03:35:36.726Z,958.44
2023-05-11T03:36:36.701Z,958.44
2023-05-11T03:37:36.674Z,958.45
2023-05-11T03:38:36.645Z,958.48
2023-05-11T03:39:36.621Z,958.47
2023-05-11T03:40:36.593Z,958.45
2023-05-11T03:41:36.571Z,958.47
2023-05-11T03:42:36.547Z,958.45
2023-05-11T03:43:36.515Z,958.46
2023-05-11T03:44:36.485Z,958.46
2023-05-11T03:45:36.457Z,958.44
2023-05-11T03:46:36.542Z,958.46
2023-05-11T03:47:36.413Z,958.44
2023-05-11T03:48:36.387Z,958.44
2023-05-11T03:49:36.376Z,958.43
2023-05-11T03:50:36.325Z,958.41
2023-05-11T03:51:36.295Z,958.41
2023-05-11T03:52:36.292Z,958.38
2023-05-11T03:53:36.242Z,958.36
2023-05-11T03:54:36.217Z,958.31
2023-05-11T03:55:36.188Z,958.38
2023-05-11T03:56:36.160Z,958.35
2023-05-11T03:57:36.137Z,958.38
2023-05-11T03:58:36.119Z,958.35
2023-05-11T03:59:36.079Z,958.33
2023-05-11T04:00:36.051Z,958.34
2023-05-11T04:01:36.022Z,958.35
2023-05-11T04:02:36.092Z,958.33
2023-05-11T04:03:36.075Z,958.37
2023-05-11T04:04:35.989Z,958.36
2023-05-11T04:05:35.946Z,958.36
2023-05-11T04:06:35.898Z,958.33
2023-05-11T04:07:35.861Z,958.34
2023-05-11T04:08:35.834Z,958.35
2023-05-11T04:09:35.811Z,958.35
2023-05-11T04:10:35.781Z,958.36
2023-05-11T04:11:35.754Z,958.39
2023-05-11T04:12:35.730Z,958.37
2023-05-11T04:13:35.707Z,958.39
2023-05-11T04:14:35.675Z,958.41
2023-05-11T04:15:35.647Z,958.38
2023-05-11T04:16:35.651Z,958.41
2023-05-11T04:17:35.650Z,958.38
2023-05-11T04:18:35.600Z,958.40
2023-05-11T04:19:35.535Z,958.35
2023-05-11T04:20:35.521Z,958.37
2023-05-11T04:21:35.501Z,958.34
2023-05-11T04:22:35.466Z,958.34
2023-05-11T04:23:35.439Z,958.36
2023-05-11T04:24:35.404Z,958.34
2023-05-11T04:25:35.375Z,958.35
2023-05-11T04:26:35.354Z,958.32
2023-05-11T04:27:35.326Z,958.31
2023-05-11T04:28:35.293Z,958.29
2023-05-11T04:29:35.272Z,958.30
2023-05-11T04:30:35.246Z,958.33
2023-05-11T04:31:35.242Z,958.32
2023-05-11T04:32:35.256Z,958.27
2023-05-11T04:33:35.161Z,958.31
2023-05-11T04:34:35.139Z,958.27
2023-05-11T04:35:35.111Z,958.24
2023-05-11T04:36:35.081Z,958.30
2023-05-11T04:37:35.087Z,958.24
2023-05-11T04:38:35.054Z,958.26
2023-05-11T04:39:34.999Z,958.27
2023-05-11T04:40:35.147Z,958.25
2023-05-11T04:41:34.961Z,958.25
2023-05-11T04:42:34.920Z,958.29
2023-05-11T04:43:34.893Z,958.29
2023-05-11T04:44:34.865Z,958.31
2023-05-11T04:45:34.847Z,958.34
2023-05-11T04:46:34.849Z,958.32
2023-05-11T04:47:34.885Z,958.32
2023-05-11T04:48:34.759Z,958.34
2023-05-11T04:49:34.733Z,958.33
2023-05-11T04:50:34.705Z,958.32
2023-05-11T04:51:34.685Z,958.36
2023-05-11T04:52:34.650Z,958.33
2023-05-11T04:53:34.649Z,958.32
2023-05-11T04:54:34.593Z,958.33
2023-05-11T04:55:34.576Z,958.36
2023-05-11T04:56:34.543Z,958.33
2023-05-11T04:57:34.518Z,958.33
2023-05-11T04:58:34.490Z,958.35
2023-05-11T04:59:34.505Z,958.31
2023-05-11T05:00:34.436Z,958.35
2023-05-11T05:01:34.530Z,958.36
2023-05-11T05:02:34.423Z,958.33
2023-05-11T05:03:34.398Z,958.38
2023-05-11T05:04:36.380Z,958.37
2023-05-11T05:05:34.305Z,958.37
2023-05-11T05:06:34.276Z,958.36
2023-05-11T05:07:34.251Z,958.40
2023-05-11T05:08:34.224Z,958.40
2023-05-11T05:09:34.226Z,958.38
2023-05-11T05:10:34.168Z,958.40
2023-05-11T05:11:34.150Z,958.38
2023-05-11T05:12:34.114Z,958.42
2023-05-11T05:13:34.091Z,958.41
2023-05-11T05:14:34.064Z,958.43
2023-05-11T05:15:34.051Z,958.41
2023-05-11T05:16:34.027Z,958.39
2023-05-11T05:17:34.006Z,958.37
2023-05-11T05:18:34.024Z,958.37
2023-05-11T05:19:33.937Z,958.37
2023-05-11T05:20:33.903Z,958.36
2023-05-11T05:21:33.877Z,958.38
2023-05-11T05:22:33.856Z,958.31
2023-05-11T05:23:33.834Z,958.41
2023-05-11T05:24:33.796Z,958.38
2023-05-11T05:25:33.787Z,958.40
2023-05-11T05:26:33.744Z,958.39
2023-05-11T05:27:35.113Z,958.38
2023-05-11T05:28:33.690Z,958.41
2023-05-11T05:29:33.667Z,958.37
2023-05-11T05:30:33.670Z,958.39
2023-05-11T05:31:33.672Z,958.41
2023-05-11T05:32:33.603Z,958.41
2023-05-11T05:33:33.566Z,958.40
2023-05-11T05:34:33.530Z,958.41
2023-05-11T05:35:33.504Z,958.45
2023-05-11T05:36:33.477Z,958.45
2023-05-11T05:37:33.456Z,958.42
2023-05-11T05:38:33.424Z,958.43
2023-05-11T05:39:33.406Z,958.44
2023-05-11T05:40:33.371Z,958.46
2023-05-11T05:41:36.396Z,958.45
2023-05-11T05:42:33.331Z,958.42
2023-05-11T05:43:33.292Z,958.43
2023-05-11T05:44:33.264Z,958.46
2023-05-11T05:45:33.240Z,958.46
2023-05-11T05:46:33.259Z,958.45
2023-05-11T05:47:33.238Z,958.46
2023-05-11T05:48:33.159Z,958.45
2023-05-11T05:49:33.135Z,958.45
2023-05-11T05:50:33.105Z,958.45
2023-05-11T05:51:33.080Z,958.45
2023-05-11T05:52:33.054Z,958.45
2023-05-11T05:53:33.031Z,958.45
2023-05-11T05:54:33.000Z,958.43
2023-05-11T05:55:32.978Z,958.44
2023-05-11T05:56:32.947Z,958.45
2023-05-11T05:57:33.041Z,958.45
2023-05-11T05:58:32.896Z,958.44
2023-05-11T05:59:32.868Z,958.43
2023-05-11T06:00:32.844Z,958.45
2023-05-11T06:01:32.814Z,958.44
2023-05-11T06:02:32.905Z,958.44
2023-05-11T06:03:32.846Z,958.43
2023-05-11T06:04:32.778Z,958.44
2023-05-11T06:05:32.722Z,958.44
2023-05-11T06:06:32.680Z,958.45
2023-05-11T06:07:32.663Z,958.48
2023-05-11T06:08:32.631Z,958.49
2023-05-11T06:09:32.612Z,958.47
2023-05-11T06:10:32.577Z,958.48
2023-05-11T06:11:32.548Z,958.48
2023-05-11T06:12:32.531Z,958.51
2023-05-11T06:13:32.513Z,958.53
2023-05-11T06:14:32.475Z,958.50
2023-05-11T06:15:32.452Z,958.49
2023-05-11T06:16:32.434Z,958.48
2023-05-11T06:17:32.412Z,958.49
2023-05-11T06:18:32.435Z,958.48
2023-05-11T06:19:32.335Z,958.50
2023-05-11T06:20:32.330Z,958.53
2023-05-11T06:21:32.281Z,958.48
2023-05-11T06:22:32.256Z,958.50
2023-05-11T06:23:32.232Z,958.51
2023-05-11T06:24:32.202Z,958.47
2023-05-11T06:25:32.176Z,958.48
2023-05-11T06:26:32.154Z,958.46
2023-05-11T06:27:32.125Z,958.46
2023-05-11T06:28:32.104Z,958.48
2023-05-11T06:29:32.297Z,958.43
2023-05-11T06:30:32.058Z,958.47
2023-05-11T06:31:32.168Z,958.46
2023-05-11T06:32:32.051Z,958.46
2023-05-11T06:33:31.979Z,958.46
2023-05-11T06:34:31.947Z,958.48
2023-05-11T06:35:31.916Z,958.45
2023-05-11T06:36:31.893Z,958.46
2023-05-11T06:37:31.867Z,958.45
2023-05-11T06:38:31.838Z,958.44
2023-05-11T06:39:31.815Z,958.45
2023-05-11T06:40:31.792Z,958.44
2023-05-11T06:41:31.759Z,958.42
2023-05-11T06:42:31.733Z,958.42
2023-05-11T06:43:31.710Z,958.42
2023-05-11T06:44:31.683Z,958.45
2023-05-11T06:45:31.781Z,958.40
2023-05-11T06:46:31.724Z,958.45
2023-05-11T06:47:31.641Z,958.39
2023-05-11T06:48:31.583Z,958.39
2023-05-11T06:49:31.555Z,958.38
2023-05-11T06:50:31.550Z,958.38
2023-05-11T06:51:31.508Z,958.38
2023-05-11T06:52:31.475Z,958.35
2023-05-11T06:53:31.450Z,958.37
2023-05-11T06:54:31.423Z,958.37
2023-05-11T06:55:31.400Z,958.36
2023-05-11T06:56:31.374Z,958.35
2023-05-11T06:57:31.352Z,958.34
2023-05-11T06:58:31.328Z,958.32
2023-05-11T06:59:31.326Z,958.37
2023-05-11T07:00:31.281Z,958.33
2023-05-11T07:01:31.373Z,958.33
2023-05-11T07:02:31.288Z,958.30
2023-05-11T07:03:31.195Z,958.30
2023-05-11T07:04:31.196Z,958.32
2023-05-11T07:05:31.140Z,958.31
2023-05-11T07:06:31.114Z,958.34
2023-05-11T07:07:31.093Z,958.31
2023-05-11T07:08:31.063Z,958.31
2023-05-11T07:09:31.038Z,958.33
2023-05-11T07:10:31.020Z,958.36
2023-05-11T07:11:30.986Z,958.32
2023-05-11T07:12:30.959Z,958.36
2023-05-11T07:13:30.943Z,958.39
2023-05-11T07:14:30.905Z,958.37
2023-05-11T07:15:30.884Z,958.40
2023-05-11T07:16:30.869Z,958.41
2023-05-11T07:17:30.884Z,958.37
2023-05-11T07:18:30.828Z,958.35
2023-05-11T07:19:30.779Z,958.35
2023-05-11T07:20:30.757Z,958.37
2023-05-11T07:21:30.728Z,958.37
2023-05-11T07:22:30.702Z,958.40
2023-05-11T07:23:30.681Z,958.39
2023-05-11T07:24:30.653Z,958.38
2023-05-11T07:25:30.626Z,958.40
2023-05-11T07:26:30.608Z,958.42
2023-05-11T07:27:30.573Z,958.43
2023-05-11T07:28:30.549Z,958.40
2023-05-11T07:29:30.524Z,958.40
2023-05-11T07:30:30.500Z,958.41
2023-05-11T07:31:30.507Z,958.43
2023-05-11T07:32:30.469Z,958.47
2023-05-11T07:33:30.443Z,958.44
2023-05-11T07:34:30.395Z,958.43
2023-05-11T07:35:30.371Z,958.43
2023-05-11T07:36:30.347Z,958.45
2023-05-11T07:37:30.326Z,958.46
2023-05-11T07:38:30.294Z,958.45
2023-05-11T07:39:30.279Z,958.50
2023-05-11T07:40:30.239Z,958.51
2023-05-11T07:41:30.219Z,958.51
2023-05-11T07:42:30.204Z,958.47
2023-05-11T07:43:30.167Z,958.47
2023-05-11T07:44:30.139Z,958.47
2023-05-11T07:45:30.124Z,958.47
2023-05-11T07:46:30.099Z,958.48
2023-05-11T07:47:30.141Z,958.52
2023-05-11T07:48:30.046Z,958.48
2023-05-11T07:49:39.910Z,958.44
2023-05-11T07:50:29.987Z,958.50
2023-05-11T07:51:29.966Z,958.47
2023-05-11T07:52:29.947Z,958.45
2023-05-11T07:53:29.911Z,958.49
2023-05-11T07:54:29.884Z,958.44
2023-05-11T07:55:29.867Z,958.44
2023-05-11T07:56:29.837Z,958.42
2023-05-11T07:57:29.818Z,958.39
2023-05-11T07:58:29.805Z,958.38
2023-05-11T07:59:29.852Z,958.42
2023-05-11T08:00:29.777Z,958.38
2023-05-11T08:01:29.794Z,958.40
2023-05-11T08:02:29.881Z,958.40
2023-05-11T08:03:29.674Z,958.44
2023-05-11T08:04:29.629Z,958.41
2023-05-11T08:05:29.686Z,958.45
2023-05-11T08:06:29.599Z,958.44
2023-05-11T08:07:29.581Z,958.43
2023-05-11T08:08:29.551Z,958.43
2023-05-11T08:09:29.510Z,958.43
2023-05-11T08:10:29.481Z,958.42
2023-05-11T08:11:29.484Z,958.42
2023-05-11T08:12:29.434Z,958.38
2023-05-11T08:13:29.414Z,958.39
2023-05-11T08:14:29.378Z,958.32
2023-05-11T08:15:29.376Z,958.33
2023-05-11T08:16:29.348Z,958.34
2023-05-11T08:17:29.313Z,958.33
2023-05-11T08:18:29.316Z,958.36
2023-05-11T08:19:29.252Z,958.35
2023-05-11T08:20:29.228Z,958.36
2023-05-11T08:21:29.225Z,958.33
2023-05-11T08:22:29.178Z,958.34
2023-05-11T08:23:29.153Z,958.35
2023-05-11T08:24:29.133Z,958.37
2023-05-11T08:25:29.101Z,958.31
2023-05-11T08:26:29.074Z,958.32
2023-05-11T08:27:29.049Z,958.32
2023-05-11T08:28:29.024Z,958.29
2023-05-11T08:29:29.015Z,958.32
2023-05-11T08:30:28.972Z,958.30
2023-05-11T08:31:28.963Z,958.31
2023-05-11T08:32:29.041Z,958.29
2023-05-11T08:33:36.553Z,958.31
2023-05-11T08:34:28.978Z,958.31
2023-05-11T08:35:28.851Z,958.34
2023-05-11T08:36:28.829Z,958.29
2023-05-11T08:37:28.819Z,958.31
2023-05-11T08:38:28.775Z,958.30
2023-05-11T08:39:46.143Z,958.33
2023-05-11T08:40:28.744Z,958.31
2023-05-11T08:41:28.701Z,958.28
2023-05-11T08:42:28.676Z,958.28
2023-05-11T08:43:28.652Z,958.26
2023-05-11T08:44:28.649Z,958.28
2023-05-11T08:45:28.642Z,958.30
2023-05-11T08:46:28.632Z,958.31
2023-05-11T08:47:28.564Z,958.27
2023-05-11T08:48:28.528Z,958.30
2023-05-11T08:49:28.512Z,958.26
2023-05-11T08:50:28.490Z,958.25
2023-05-11T08:51:28.470Z,958.25
2023-05-11T08:52:28.430Z,958.24
2023-05-11T08:53:28.435Z,958.25
2023-05-11T08:54:28.383Z,958.27
2023-05-11T08:55:28.362Z,958.27
2023-05-11T08:56:28.333Z,958.27
2023-05-11T08:57:28.309Z,958.28
2023-05-11T08:58:28.296Z,958.23
2023-05-11T08:59:28.265Z,958.22
2023-05-11T09:00:28.259Z,958.21
2023-05-11T09:01:28.254Z,958.19
2023-05-11T09:02:28.233Z,958.20
2023-05-11T09:03:28.167Z,958.19
2023-05-11T09:04:28.144Z,958.14
2023-05-11T09:05:28.159Z,958.12
2023-05-11T09:06:28.116Z,958.09
2023-05-11T09:07:28.082Z,958.06
2023-05-11T09:08:28.048Z,958.06
2023-05-11T09:09:28.056Z,958.03
2023-05-11T09:10:28.003Z,958.06
2023-05-11T09:11:27.978Z,958.05
2023-05-11T09:12:27.954Z,958.02
2023-05-11T09:13:27.976Z,958.01
2023-05-11T09:14:27.926Z,958.02
2023-05-11T09:15:27.883Z,957.98
2023-05-11T09:16:36.175Z,958.01
2023-05-11T09:17:27.868Z,958.05
2023-05-11T09:18:27.875Z,958.03
2023-05-11T09:19:27.808Z,958.07
2023-05-11T09:20:27.788Z,958.04
2023-05-11T09:21:27.753Z,958.03
2023-05-11T09:22:30.251Z,958.01
2023-05-11T09:23:27.722Z,957.99
2023-05-11T09:24:27.675Z,957.95
2023-05-11T09:25:27.708Z,957.94
2023-05-11T09:26:27.659Z,957.94
2023-05-11T09:27:27.603Z,957.91
2023-05-11T09:28:35.389Z,957.94
2023-05-11T09:29:30.402Z,957.91
2023-05-11T09:30:27.642Z,957.90
2023-05-11T09:31:27.552Z,957.88
2023-05-11T09:32:27.496Z,957.87
2023-05-11T09:33:27.462Z,957.86
2023-05-11T09:34:27.445Z,957.83
2023-05-11T09:35:27.417Z,957.83
2023-05-11T09:36:27.403Z,957.82
2023-05-11T09:37:27.366Z,957.84
2023-05-11T09:38:27.346Z,957.81
2023-05-11T09:39:35.357Z,957.84
2023-05-11T09:40:33.483Z,957.84
2023-05-11T09:42:27.249Z,957.74
2023-05-11T09:43:27.254Z,957.75
2023-05-11T09:44:27.199Z,957.80
2023-05-11T09:45:27.185Z,957.77
2023-05-11T09:46:27.192Z,957.81
2023-05-11T09:47:27.170Z,957.76
2023-05-11T09:48:27.230Z,957.74
2023-05-11T09:49:27.096Z,957.75
2023-05-11T09:50:27.153Z,957.75
2023-05-11T09:51:27.035Z,957.72
2023-05-11T09:52:27.014Z,957.69
2023-05-11T09:53:26.990Z,957.64
2023-05-11T09:54:27.020Z,957.63
2023-05-11T09:55:26.946Z,957.63
2023-05-11T09:56:26.920Z,957.63
2023-05-11T09:57:26.923Z,957.56
2023-05-11T09:58:26.874Z,957.54
2023-05-11T09:59:26.849Z,957.56
2023-05-11T10:00:26.846Z,957.57
2023-05-11T10:01:26.815Z,957.58
2023-05-11T10:02:26.937Z,957.59
2023-05-11T10:03:26.875Z,957.53
2023-05-11T10:04:27.031Z,957.59
2023-05-11T10:05:26.714Z,957.56
2023-05-11T10:06:26.685Z,957.59
2023-05-11T10:07:26.668Z,957.60
2023-05-11T10:08:26.654Z,957.61
2023-05-11T10:09:26.624Z,957.57
2023-05-11T10:10:26.595Z,957.55
2023-05-11T10:11:26.658Z,957.52
2023-05-11T10:12:26.549Z,957.56
2023-05-11T10:13:26.568Z,957.53
2023-05-11T10:14:26.500Z,957.57
2023-05-11T10:15:26.503Z,957.56
2023-05-11T10:16:26.497Z,957.57
2023-05-11T10:17:26.482Z,957.56
2023-05-11T10:18:26.431Z,957.58
2023-05-11T10:19:26.378Z,957.58
2023-05-11T10:20:26.362Z,957.55
2023-05-11T10:21:26.333Z,957.54
2023-05-11T10:22:26.397Z,957.54
2023-05-11T10:23:26.284Z,957.52
2023-05-11T10:24:26.268Z,957.54
2023-05-11T10:25:26.239Z,957.59
2023-05-11T10:26:26.209Z,957.58
2023-05-11T10:27:26.189Z,957.64
2023-05-11T10:28:26.163Z,957.65
2023-05-11T10:29:26.156Z,957.59
2023-05-11T10:30:26.112Z,957.63
2023-05-11T10:31:26.088Z,957.62
2023-05-11T10:32:26.106Z,957.62
2023-05-11T10:33:26.043Z,957.63
2023-05-11T10:34:26.017Z,957.60
2023-05-11T10:35:25.986Z,957.56
2023-05-11T10:36:25.972Z,957.61
2023-05-11T10:37:25.948Z,957.56
2023-05-11T10:38:25.914Z,957.58
2023-05-11T10:39:25.888Z,957.58
2023-05-11T10:40:25.864Z,957.54
2023-05-11T10:41:25.838Z,957.56
2023-05-11T10:42:25.817Z,957.54
2023-05-11T10:43:25.801Z,957.51
2023-05-11T10:44:25.781Z,957.55
2023-05-11T10:45:25.785Z,957.56
2023-05-11T10:46:27.479Z,957.55
2023-05-11T10:47:25.743Z,957.51
2023-05-11T10:48:25.666Z,957.58
2023-05-11T10:49:25.638Z,957.62
2023-05-11T10:50:25.628Z,957.63
2023-05-11T10:51:25.589Z,957.58
2023-05-11T10:52:26.743Z,957.59
2023-05-11T10:53:25.550Z,957.52
2023-05-11T10:54:25.516Z,957.56
2023-05-11T10:55:25.497Z,957.58
2023-05-11T10:56:25.464Z,957.59
2023-05-11T10:57:25.439Z,957.57
2023-05-11T10:58:25.413Z,957.58
2023-05-11T10:59:25.392Z,957.53
2023-05-11T11:00:25.390Z,957.53
2023-05-11T11:01:25.414Z,957.53
2023-05-11T11:02:25.338Z,957.57
2023-05-11T11:03:25.290Z,957.56
2023-05-11T11:04:25.264Z,957.56
2023-05-11T11:05:25.315Z,957.54
2023-05-11T11:06:25.231Z,957.57
2023-05-11T11:07:25.192Z,957.56
2023-05-11T11:08:25.173Z,957.55
2023-05-11T11:09:25.140Z,957.58
2023-05-11T11:10:25.119Z,957.63
2023-05-11T11:11:25.091Z,957.65
2023-05-11T11:12:25.066Z,957.63
2023-05-11T11:13:25.040Z,957.68
2023-05-11T11:14:25.014Z,957.69
2023-05-11T11:15:24.989Z,957.67
2023-05-11T11:16:25.037Z,957.69
2023-05-11T11:17:25.011Z,957.69
2023-05-11T11:18:25.036Z,957.68
2023-05-11T11:19:24.891Z,957.72
2023-05-11T11:20:24.867Z,957.69
2023-05-11T11:21:26.250Z,957.76
2023-05-11T11:22:24.818Z,957.74
2023-05-11T11:23:24.792Z,957.70
2023-05-11T11:24:24.766Z,957.67
2023-05-11T11:25:24.741Z,957.66
2023-05-11T11:26:24.718Z,957.64
2023-05-11T11:27:28.161Z,957.65
2023-05-11T11:28:24.669Z,957.63
2023-05-11T11:29:24.642Z,957.70
2023-05-11T11:30:24.621Z,957.67
2023-05-11T11:31:24.659Z,957.68
2023-05-11T11:32:24.619Z,957.61
2023-05-11T11:33:24.577Z,957.59
2023-05-11T11:34:24.527Z,957.55
2023-05-11T11:35:24.497Z,957.51
2023-05-11T11:36:24.474Z,957.52
2023-05-11T11:37:24.448Z,957.50
2023-05-11T11:38:24.436Z,957.48
2023-05-11T11:39:24.401Z,957.47
2023-05-11T11:40:24.375Z,957.48
2023-05-11T11:41:24.350Z,957.43
2023-05-11T11:42:24.328Z,957.44
2023-05-11T11:43:24.302Z,957.40
2023-05-11T11:44:24.297Z,957.43
2023-05-11T11:45:24.253Z,957.47
2023-05-11T11:46:24.241Z,957.42
2023-05-11T11:47:24.214Z,957.45
2023-05-11T11:48:24.195Z,957.44
2023-05-11T11:49:24.176Z,957.45
2023-05-11T11:50:24.144Z,957.46
2023-05-11T11:51:24.109Z,957.47
2023-05-11T11:52:24.083Z,957.52
2023-05-11T11:53:24.055Z,957.53
2023-05-11T11:54:24.031Z,957.55
2023-05-11T11:55:24.006Z,957.54
2023-05-11T11:56:23.985Z,957.58
2023-05-11T11:57:23.962Z,957.61
2023-05-11T11:58:23.931Z,957.62
2023-05-11T11:59:23.910Z,957.58
2023-05-11T12:00:23.884Z,957.59
2023-05-11T12:01:23.852Z,957.60
2023-05-11T12:02:23.864Z,957.60
2023-05-11T12:03:23.922Z,957.64
2023-05-11T12:04:23.956Z,957.64
2023-05-11T12:05:24.111Z,957.65
2023-05-11T12:06:26.459Z,957.65
2023-05-11T12:07:23.704Z,957.61
2023-05-11T12:08:23.678Z,957.62
2023-05-11T12:09:23.710Z,957.63
2023-05-11T12:10:23.636Z,957.64
2023-05-11T12:11:23.601Z,957.63
2023-05-11T12:12:23.575Z,957.63
2023-05-11T12:13:23.553Z,957.61
2023-05-11T12:14:23.530Z,957.57
2023-05-11T12:15:23.499Z,957.61
2023-05-11T12:16:23.527Z,957.59
2023-05-11T12:17:23.491Z,957.59
2023-05-11T12:18:23.445Z,957.59
2023-05-11T12:19:23.396Z,957.61
2023-05-11T12:20:23.376Z,957.60
2023-05-11T12:21:23.366Z,957.58
2023-05-11T12:22:23.351Z,957.60
2023-05-11T12:23:23.303Z,957.58
2023-05-11T12:24:23.275Z,957.56
2023-05-11T12:25:23.554Z,957.57
2023-05-11T12:26:23.220Z,957.56
2023-05-11T12:27:23.204Z,957.51
2023-05-11T12:28:23.168Z,957.54
2023-05-11T12:29:23.144Z,957.55